Time;durP1;ratioP1;P1;durP2;ratioP2;P2;SDS_P1;SDS_P2;PMS_P1;PMS_P2;Temp;Humidity;BMP_temperature;BMP_pressure;BME280_temperature;BME280_humidity;BME280_pressure;Samples;Min_cycle;Max_cycle;Signal;HPM_P1;HPM_P2
2023/01/29 00:00:34;;;;;;;15.93;9.40;;;;;;;-1.28;84.78;96516.53;5044366;28;21056;-79
2023/01/29 00:02:59;;;;;;;11.73;8.47;;;;;;;-1.26;85.32;96517.28;5038621;28;20236;-78
2023/01/29 00:05:25;;;;;;;10.63;8.67;;;;;;;-1.24;85.64;96510.41;5036385;28;20222;-79
2023/01/29 00:07:50;;;;;;;11.93;8.10;;;;;;;-1.18;85.36;96515.31;5054206;28;20185;-79
2023/01/29 00:10:15;;;;;;;12.77;9.43;;;;;;;-1.27;84.99;96520.72;5036946;28;20209;-79
2023/01/29 00:12:41;;;;;;;13.80;9.93;;;;;;;-1.20;85.25;96504.34;5041855;28;20213;-80
2023/01/29 00:15:06;;;;;;;9.27;7.13;;;;;;;-1.48;84.03;96505.28;5038414;28;20676;-80
2023/01/29 00:17:32;;;;;;;8.80;7.67;;;;;;;-1.59;85.26;96498.88;5037912;28;20189;-79
2023/01/29 00:19:57;;;;;;;13.20;9.47;;;;;;;-1.34;85.00;96509.06;5054942;28;20193;-79
2023/01/29 00:22:23;;;;;;;11.17;8.30;;;;;;;-1.25;84.23;96509.59;5041818;28;20200;-80
2023/01/29 00:24:48;;;;;;;11.67;8.93;;;;;;;-1.20;84.89;96509.44;5036967;28;20189;-78
2023/01/29 00:27:13;;;;;;;10.10;8.13;;;;;;;-1.19;85.20;96495.81;5036737;28;20191;-78
2023/01/29 00:29:39;;;;;;;9.87;7.60;;;;;;;-1.16;85.48;96503.34;5038281;28;20975;-78
2023/01/29 00:32:04;;;;;;;10.17;7.07;;;;;;;-1.10;85.73;96504.84;5037931;28;20216;-80
2023/01/29 00:34:29;;;;;;;11.50;8.53;;;;;;;-1.20;85.93;96501.81;5042345;28;20207;-79
2023/01/29 00:37:05;;;;;;;11.20;9.13;;;;;;;-1.22;87.03;96495.94;5042744;28;20200;-79
2023/01/29 00:39:37;;;;;;;10.07;7.90;;;;;;;-1.33;87.21;96505.63;5044445;28;20687;-79
2023/01/29 00:44:57;;;;;;;21.17;13.77;;;;;;;-1.26;86.17;96499.44;5027544;28;20202;-79
2023/01/29 00:47:34;;;;;;;16.27;10.27;;;;;;;-1.34;86.17;96503.97;5041195;28;20189;-80
2023/01/29 00:50:01;;;;;;;14.80;10.73;;;;;;;-1.46;86.77;96507.78;5049555;28;20186;-80
2023/01/29 00:52:26;;;;;;;16.50;10.40;;;;;;;-1.31;86.41;96516.63;5029214;28;20206;-79
2023/01/29 00:54:53;;;;;;;22.50;15.70;;;;;;;-1.34;86.13;96516.72;5048524;28;20297;-79
2023/01/29 00:57:18;;;;;;;26.60;17.37;;;;;;;-1.44;87.29;96511.09;5050483;28;20189;-79
2023/01/29 00:59:43;;;;;;;21.37;12.10;;;;;;;-1.36;87.24;96511.69;5037063;28;20194;-78
2023/01/29 01:04:53;;;;;;;15.73;10.47;;;;;;;-1.22;86.51;96512.06;5051510;28;20242;-79
2023/01/29 01:07:18;;;;;;;19.17;11.97;;;;;;;-1.26;86.53;96512.19;5032197;28;20222;-79
2023/01/29 01:12:28;;;;;;;15.03;9.60;;;;;;;-1.38;87.23;96507.53;5056000;28;20202;-80
2023/01/29 01:14:53;;;;;;;6.83;5.40;;;;;;;-1.51;83.95;96500.28;5041236;28;20642;-78
2023/01/29 01:17:18;;;;;;;6.90;5.30;;;;;;;-1.53;82.32;96503.78;5047581;28;20196;-79
2023/01/29 01:19:44;;;;;;;8.73;7.10;;;;;;;-1.42;84.39;96506.78;5052619;28;20187;-79
2023/01/29 01:22:10;;;;;;;12.83;8.00;;;;;;;-1.39;84.87;96495.69;5059639;28;20208;-78
2023/01/29 01:24:38;;;;;;;11.90;7.70;;;;;;;-1.32;85.42;96494.59;5049365;28;20540;-77
2023/01/29 01:27:04;;;;;;;11.33;8.00;;;;;;;-1.32;86.15;96492.88;5048010;28;20188;-79
2023/01/29 01:29:29;;;;;;;10.00;7.77;;;;;;;-1.34;86.94;96501.44;5040528;28;20232;-78
2023/01/29 01:31:55;;;;;;;9.97;7.93;;;;;;;-1.31;87.09;96507.28;5040195;28;20220;-78
2023/01/29 01:34:21;;;;;;;15.43;9.73;;;;;;;-1.41;87.23;96503.38;5039440;28;20195;-79
2023/01/29 01:36:46;;;;;;;15.17;10.13;;;;;;;-1.23;86.43;96517.22;5043022;28;20191;-79
2023/01/29 01:39:11;;;;;;;20.77;12.40;;;;;;;-1.46;87.10;96515.41;5054007;28;20241;-78
2023/01/29 01:41:37;;;;;;;12.60;8.93;;;;;;;-1.42;87.76;96517.81;5039100;28;20212;-79
2023/01/29 01:44:03;;;;;;;20.37;11.67;;;;;;;-1.45;88.27;96510.28;5044715;28;20184;-79
2023/01/29 01:46:31;;;;;;;10.67;8.30;;;;;;;-1.34;87.92;96509.06;5020715;28;20209;-78
2023/01/29 01:49:01;;;;;;;8.03;5.97;;;;;;;-1.53;83.57;96506.31;5036363;28;20192;-78
2023/01/29 01:51:27;;;;;;;14.90;8.53;;;;;;;-1.67;83.44;96501.69;5053047;28;20704;-79
2023/01/29 01:54:01;;;;;;;10.17;7.87;;;;;;;-1.43;85.38;96503.41;5037274;28;20269;-78
2023/01/29 01:56:37;;;;;;;9.93;8.07;;;;;;;-1.49;86.76;96503.63;5052251;28;20941;-79
2023/01/29 01:59:04;;;;;;;10.90;8.13;;;;;;;-1.60;86.63;96498.03;5042533;28;20706;-79
2023/01/29 02:01:29;;;;;;;12.40;8.67;;;;;;;-1.73;87.78;96489.97;5035272;28;20211;-78
2023/01/29 02:09:37;;;;;;;11.70;8.17;;;;;;;-1.60;87.09;96492.13;5045668;28;20181;-78
2023/01/29 02:12:13;;;;;;;9.43;6.60;;;;;;;-1.58;82.99;96495.47;5034723;28;20220;-79
2023/01/29 02:14:41;;;;;;;7.10;5.70;;;;;;;-1.48;82.16;96502.75;5051991;28;20184;-78
2023/01/29 02:17:09;;;;;;;7.70;5.77;;;;;;;-1.39;81.59;96508.41;5045684;28;20657;-79
2023/01/29 02:20:05;;;;;;;10.03;6.53;;;;;;;-1.38;82.48;96505.81;5035049;28;20195;-79
2023/01/29 02:22:57;;;;;;;8.63;6.77;;;;;;;-1.36;83.42;96500.66;5054572;28;20241;-79
2023/01/29 02:25:45;;;;;;;11.70;7.83;;;;;;;-1.34;83.64;96503.97;5053793;28;20208;-79
2023/01/29 02:28:31;;;;;;;13.90;8.90;;;;;;;-1.37;85.02;96504.09;5041355;28;20190;-78
2023/01/29 02:31:11;;;;;;;8.27;6.77;;;;;;;-1.46;83.73;96510.31;5049866;28;20561;-78
2023/01/29 02:34:19;;;;;;;7.60;5.77;;;;;;;-1.42;81.89;96506.78;5029653;28;20181;-78
2023/01/29 02:36:58;;;;;;;6.23;5.60;;;;;;;-1.45;80.99;96500.09;5047198;28;20295;-78
2023/01/29 02:39:58;;;;;;;8.90;6.37;;;;;;;-1.34;82.05;96498.88;5053548;28;20266;-79
2023/01/29 02:42:29;;;;;;;10.60;6.83;;;;;;;-1.35;82.74;96498.06;5035097;28;20917;-78
2023/01/29 02:45:13;;;;;;;8.33;6.97;;;;;;;-1.28;83.64;96498.69;5034395;28;20192;-79
2023/01/29 02:47:47;;;;;;;10.60;7.47;;;;;;;-1.23;83.87;96491.72;5050432;28;20236;-79
2023/01/29 02:50:17;;;;;;;10.87;7.77;;;;;;;-1.35;84.08;96494.66;5035597;28;20186;-79
2023/01/29 02:52:49;;;;;;;9.93;7.90;;;;;;;-1.40;84.77;96494.84;5042147;28;20184;-79
2023/01/29 02:55:20;;;;;;;13.67;8.23;;;;;;;-1.39;84.53;96498.22;5052947;28;20178;-79
2023/01/29 02:57:47;;;;;;;31.37;14.73;;;;;;;-1.37;85.34;96494.72;5035785;28;20198;-78
2023/01/29 03:00:13;;;;;;;21.73;11.37;;;;;;;-1.39;85.30;96495.69;5035396;28;20191;-79
2023/01/29 03:02:50;;;;;;;48.67;21.23;;;;;;;-1.39;85.43;96491.41;5043185;28;20566;-79
2023/01/29 03:05:27;;;;;;;25.07;14.67;;;;;;;-1.44;86.09;96494.09;5021364;28;20228;-79
2023/01/29 03:07:57;;;;;;;20.40;11.07;;;;;;;-1.43;86.46;96495.75;5038285;28;20197;-78
2023/01/29 03:10:27;;;;;;;10.60;7.73;;;;;;;-1.38;85.35;96493.06;5034466;28;20220;-78
2023/01/29 03:12:58;;;;;;;10.80;8.33;;;;;;;-1.45;83.42;96492.44;5045695;28;20178;-79
2023/01/29 03:16:13;;;;;;;8.83;7.10;;;;;;;-1.25;83.21;96498.56;5045373;28;20188;-78
2023/01/29 03:18:44;;;;;;;11.20;7.03;;;;;;;-1.36;82.52;96483.66;5010955;28;20206;-78
2023/01/29 03:32:15;;;;;;;7.53;5.37;;;;;;;-1.48;79.16;96489.19;5021182;28;20224;-79
2023/01/29 03:35:00;;;;;;;14.73;7.90;;;;;;;-1.52;77.57;96490.97;5011350;28;20199;-77
2023/01/29 03:37:41;;;;;;;8.00;6.53;;;;;;;-1.50;78.71;96489.22;5002264;28;20225;-78
2023/01/29 03:40:08;;;;;;;7.30;5.87;;;;;;;-1.69;78.60;96493.25;5003790;28;20194;-78
2023/01/29 03:42:47;;;;;;;7.03;6.13;;;;;;;-1.63;77.65;96487.13;5010952;28;20607;-78
2023/01/29 03:45:31;;;;;;;7.97;5.83;;;;;;;-1.50;78.96;96490.94;5000980;28;20208;-78
2023/01/29 03:48:11;;;;;;;6.70;5.33;;;;;;;-1.45;79.03;96487.34;5022270;28;20218;-79
2023/01/29 03:50:49;;;;;;;8.13;6.43;;;;;;;-1.51;80.20;96490.09;5021765;28;20743;-78
2023/01/29 03:53:29;;;;;;;11.17;6.27;;;;;;;-1.64;81.18;96488.84;5012978;28;20210;-78
2023/01/29 03:55:57;;;;;;;7.57;5.90;;;;;;;-1.53;81.61;96491.03;5043614;28;20193;-79
2023/01/29 03:58:36;;;;;;;9.73;6.20;;;;;;;-1.47;81.56;96494.22;5047797;28;20267;-79
2023/01/29 04:01:21;;;;;;;7.67;5.80;;;;;;;-1.67;80.29;96486.41;5054126;28;20578;-79
2023/01/29 04:03:48;;;;;;;9.07;5.93;;;;;;;-1.56;80.77;96491.16;5055071;28;20712;-79
2023/01/29 04:06:22;;;;;;;7.67;5.87;;;;;;;-1.58;80.92;96490.38;5053016;28;20285;-79
2023/01/29 04:08:55;;;;;;;9.00;5.63;;;;;;;-1.81;81.02;96486.03;5032328;28;20184;-79
2023/01/29 04:11:22;;;;;;;5.70;5.00;;;;;;;-1.76;78.65;96485.00;5055801;28;20215;-78
2023/01/29 04:13:48;;;;;;;7.80;5.37;;;;;;;-1.63;78.61;96489.69;5042718;28;20185;-79
2023/01/29 04:16:22;;;;;;;5.70;5.03;;;;;;;-1.62;77.91;96492.16;5039904;28;20246;-79
2023/01/29 04:18:48;;;;;;;5.17;4.67;;;;;;;-1.60;78.35;96492.94;5040083;28;20653;-79
2023/01/29 04:21:14;;;;;;;7.23;5.83;;;;;;;-1.67;78.30;96491.50;5040780;28;20210;-79
2023/01/29 04:23:39;;;;;;;7.00;5.63;;;;;;;-1.66;78.55;96487.25;5038884;28;20190;-79
2023/01/29 04:26:27;;;;;;;5.40;4.63;;;;;;;-1.72;76.94;96498.44;5048208;28;20732;-79
2023/01/29 04:29:21;;;;;;;4.67;3.90;;;;;;;-1.74;74.74;96495.97;5041032;28;20658;-78
2023/01/29 04:31:57;;;;;;;5.57;4.43;;;;;;;-1.73;75.48;96497.63;5039851;28;20205;-77
2023/01/29 04:34:27;;;;;;;5.77;5.07;;;;;;;-1.76;77.48;96502.00;5047528;28;20232;-77
2023/01/29 04:37:24;;;;;;;5.73;5.00;;;;;;;-1.84;77.99;96489.50;5036841;28;20226;-78
2023/01/29 04:39:54;;;;;;;7.37;4.27;;;;;;;-2.05;78.03;96491.00;4986892;28;20224;-78
2023/01/29 04:42:29;;;;;;;6.03;4.53;;;;;;;-1.83;77.30;96486.06;4989751;28;20216;-79
2023/01/29 04:45:15;;;;;;;6.47;4.83;;;;;;;-1.79;77.65;96489.34;4996815;28;20219;-78
2023/01/29 04:48:21;;;;;;;5.13;4.57;;;;;;;-1.79;77.85;96496.97;4983377;28;20184;-78
2023/01/29 04:50:56;;;;;;;5.13;4.63;;;;;;;-1.75;78.39;96486.66;4971242;28;20363;-81
2023/01/29 04:53:40;;;;;;;5.77;4.73;;;;;;;-1.68;78.85;96492.38;4987782;28;20311;-77
2023/01/29 04:56:17;;;;;;;5.50;5.00;;;;;;;-1.80;78.67;96490.22;5015051;28;20191;-78
2023/01/29 04:58:54;;;;;;;6.10;4.93;;;;;;;-1.86;79.17;96491.25;4989182;28;20183;-81
2023/01/29 05:01:21;;;;;;;6.53;5.33;;;;;;;-1.77;79.19;96490.13;4988454;28;20218;-78
2023/01/29 05:03:49;;;;;;;6.57;4.67;;;;;;;-1.73;78.75;96486.59;4981202;28;20202;-81
2023/01/29 05:06:16;;;;;;;5.80;4.63;;;;;;;-1.70;79.32;96491.59;4993506;28;20203;-78
2023/01/29 05:08:41;;;;;;;7.10;4.37;;;;;;;-1.77;78.78;96479.94;4990972;28;20218;-78
2023/01/29 05:11:07;;;;;;;4.80;4.30;;;;;;;-1.66;78.94;96488.06;4981882;28;20301;-78
2023/01/29 05:13:33;;;;;;;5.60;5.00;;;;;;;-1.72;79.21;96490.81;4997897;28;20196;-78
2023/01/29 05:16:01;;;;;;;5.67;5.13;;;;;;;-1.84;80.06;96488.69;5012226;28;20191;-79
2023/01/29 05:18:28;;;;;;;5.13;4.63;;;;;;;-1.86;80.07;96491.25;5055252;28;20193;-79
2023/01/29 05:20:55;;;;;;;5.90;5.30;;;;;;;-1.78;81.23;96494.38;5036221;28;20762;-77
2023/01/29 05:23:21;;;;;;;5.70;5.10;;;;;;;-1.79;80.25;96502.91;5036283;28;20264;-78
2023/01/29 05:25:48;;;;;;;6.07;5.47;;;;;;;-1.85;80.07;96507.38;5045156;28;20218;-79
2023/01/29 05:28:16;;;;;;;7.80;5.50;;;;;;;-1.88;79.90;96513.38;5043658;28;20214;-79
2023/01/29 05:30:47;;;;;;;19.87;11.30;;;;;;;-1.93;79.99;96506.78;5041403;28;20202;-78
2023/01/29 05:33:14;;;;;;;10.70;7.33;;;;;;;-1.85;79.53;96498.03;5057138;28;20183;-77
2023/01/29 05:35:39;;;;;;;9.70;7.17;;;;;;;-1.75;79.55;96490.91;5046537;28;20182;-78
2023/01/29 05:38:04;;;;;;;10.27;7.37;;;;;;;-1.78;80.13;96491.00;5040481;28;20211;-79
2023/01/29 05:40:30;;;;;;;6.97;5.77;;;;;;;-1.94;79.36;96482.19;5042398;28;20223;-78
2023/01/29 05:42:55;;;;;;;15.77;10.47;;;;;;;-2.03;78.36;96468.91;5044176;28;20203;-79
2023/01/29 05:45:20;;;;;;;11.50;8.07;;;;;;;-2.04;80.17;96462.13;5037837;28;20216;-79
2023/01/29 05:47:46;;;;;;;6.43;5.03;;;;;;;-2.00;80.10;96452.69;5050887;28;20226;-78
2023/01/29 05:50:12;;;;;;;5.30;4.80;;;;;;;-1.94;80.04;96446.56;5046096;28;20182;-78
2023/01/29 05:52:38;;;;;;;6.30;5.53;;;;;;;-1.95;79.93;96458.44;5034244;28;20192;-78
2023/01/29 05:55:03;;;;;;;7.53;5.17;;;;;;;-1.93;78.14;96468.59;5036188;28;20236;-78
2023/01/29 05:57:29;;;;;;;5.87;5.27;;;;;;;-1.83;78.34;96469.97;5024217;28;20678;-79
2023/01/29 05:59:54;;;;;;;5.70;5.03;;;;;;;-1.87;78.37;96473.47;5047687;28;20261;-78
2023/01/29 06:02:20;;;;;;;6.23;5.33;;;;;;;-1.84;78.70;96458.97;5038129;28;20239;-78
2023/01/29 06:04:45;;;;;;;5.07;4.57;;;;;;;-1.94;78.68;96462.69;5037615;28;20191;-79
2023/01/29 06:07:10;;;;;;;6.43;5.27;;;;;;;-1.91;79.69;96474.47;5044342;28;20228;-77
2023/01/29 06:09:35;;;;;;;7.40;5.60;;;;;;;-2.08;79.22;96464.84;5038029;28;20187;-78
2023/01/29 06:12:01;;;;;;;6.93;5.83;;;;;;;-1.98;78.99;96466.19;5038804;28;20574;-78
2023/01/29 06:14:26;;;;;;;7.90;5.80;;;;;;;-2.03;78.99;96470.63;5051438;28;20186;-79
2023/01/29 06:16:51;;;;;;;7.27;5.80;;;;;;;-1.97;79.53;96475.50;5045477;28;20178;-78
2023/01/29 06:19:17;;;;;;;8.10;6.20;;;;;;;-1.87;79.32;96476.84;5041473;28;20186;-78
2023/01/29 06:21:42;;;;;;;6.50;5.37;;;;;;;-1.84;79.06;96483.59;5040442;28;20216;-78
2023/01/29 06:24:08;;;;;;;6.73;5.30;;;;;;;-1.83;78.70;96483.53;5045542;28;20194;-78
2023/01/29 06:26:33;;;;;;;6.63;5.93;;;;;;;-1.82;79.56;96486.91;5052326;28;20563;-78
2023/01/29 06:28:58;;;;;;;6.47;5.43;;;;;;;-1.76;79.83;96487.53;5041679;28;20188;-77
2023/01/29 06:31:24;;;;;;;7.63;6.30;;;;;;;-1.75;79.73;96489.22;5045072;28;20804;-78
2023/01/29 06:33:49;;;;;;;7.27;6.17;;;;;;;-1.68;80.00;96492.38;5047800;28;20205;-78
2023/01/29 06:36:14;;;;;;;6.83;5.93;;;;;;;-1.74;79.77;96482.41;5039968;28;20199;-78
2023/01/29 06:38:39;;;;;;;7.27;6.17;;;;;;;-1.75;80.45;96489.22;5038810;28;20727;-79
2023/01/29 06:41:10;;;;;;;8.23;6.30;;;;;;;-1.78;79.96;96484.19;5050202;28;20214;-78
2023/01/29 06:43:36;;;;;;;6.43;5.50;;;;;;;-2.00;78.85;96468.78;5043202;28;20218;-79
2023/01/29 06:46:01;;;;;;;6.03;5.30;;;;;;;-1.77;78.24;96475.69;5049206;28;20201;-78
2023/01/29 06:48:26;;;;;;;6.30;5.70;;;;;;;-1.89;77.45;96481.19;5057058;28;20183;-78
2023/01/29 06:50:54;;;;;;;8.10;6.63;;;;;;;-1.80;78.21;96480.03;5042434;28;20668;-79
2023/01/29 06:53:19;;;;;;;8.13;6.90;;;;;;;-1.75;77.96;96485.84;5045882;28;20208;-77
2023/01/29 06:55:50;;;;;;;8.97;5.93;;;;;;;-1.71;77.82;96483.13;5046617;28;20200;-79
2023/01/29 06:58:16;;;;;;;8.30;6.33;;;;;;;-1.77;78.50;96478.25;5035852;28;20185;-78
2023/01/29 07:00:41;;;;;;;6.90;5.57;;;;;;;-1.92;78.88;96485.53;5058613;28;20207;-78
2023/01/29 07:03:08;;;;;;;6.30;5.37;;;;;;;-1.83;79.05;96485.25;5046757;28;20228;-80
2023/01/29 07:05:33;;;;;;;6.87;5.97;;;;;;;-1.76;79.56;96479.06;5042504;28;20321;-78
2023/01/29 07:07:58;;;;;;;7.53;5.53;;;;;;;-1.79;80.34;96477.44;5046383;28;20632;-79
2023/01/29 07:10:25;;;;;;;6.57;5.87;;;;;;;-1.81;79.76;96478.38;5036014;28;20216;-79
2023/01/29 07:12:50;;;;;;;7.40;6.23;;;;;;;-1.67;78.68;96473.69;5040221;28;20185;-80
2023/01/29 07:15:19;;;;;;;6.03;5.43;;;;;;;-1.49;78.52;96478.16;5044091;28;20291;-79
2023/01/29 07:17:54;;;;;;;6.40;5.77;;;;;;;-1.44;78.13;96481.34;5056598;28;20333;-79
2023/01/29 07:20:20;;;;;;;8.13;6.13;;;;;;;-1.50;78.95;96484.13;5039681;28;20202;-79
2023/01/29 07:22:45;;;;;;;8.77;6.33;;;;;;;-1.49;78.69;96485.81;5047577;28;20182;-78
2023/01/29 07:25:10;;;;;;;6.93;5.93;;;;;;;-1.47;78.82;96493.38;5039707;28;20209;-78
2023/01/29 07:27:36;;;;;;;6.30;5.60;;;;;;;-1.50;78.09;96498.59;5037086;28;20268;-78
2023/01/29 07:30:01;;;;;;;6.97;6.10;;;;;;;-1.44;78.74;96501.75;5054889;28;20198;-79
2023/01/29 07:32:27;;;;;;;7.97;6.10;;;;;;;-1.40;78.18;96504.22;5046910;28;20186;-79
2023/01/29 07:34:53;;;;;;;7.47;6.17;;;;;;;-1.35;78.42;96513.34;5056031;28;20188;-79
2023/01/29 07:37:18;;;;;;;6.83;6.13;;;;;;;-1.22;77.91;96504.41;5048898;28;20184;-78
2023/01/29 07:39:45;;;;;;;6.63;5.53;;;;;;;-1.52;76.66;96505.44;5041543;28;20201;-79
2023/01/29 07:42:10;;;;;;;6.83;6.00;;;;;;;-1.48;77.68;96507.00;5049700;28;20212;-78
2023/01/29 07:44:35;;;;;;;9.00;6.43;;;;;;;-1.47;76.06;96509.50;5043521;28;20260;-78
2023/01/29 07:47:01;;;;;;;6.50;5.33;;;;;;;-1.28;75.88;96516.53;5053379;28;20217;-80
2023/01/29 07:49:26;;;;;;;7.10;5.70;;;;;;;-1.14;75.32;96519.44;5036231;28;20581;-79
2023/01/29 07:51:51;;;;;;;7.53;6.10;;;;;;;-1.15;74.93;96526.25;5046720;28;20236;-80
2023/01/29 07:54:17;;;;;;;6.80;6.10;;;;;;;-1.06;74.90;96520.00;5040027;28;20186;-78
2023/01/29 07:56:42;;;;;;;7.93;6.67;;;;;;;-0.95;75.30;96523.00;5043671;28;20178;-78
2023/01/29 07:59:07;;;;;;;7.83;6.97;;;;;;;-0.94;75.12;96521.28;5042089;28;20197;-79
2023/01/29 08:01:32;;;;;;;8.30;6.87;;;;;;;-0.70;75.18;96524.69;5039113;28;20220;-79
2023/01/29 08:03:58;;;;;;;10.13;8.07;;;;;;;-0.78;75.47;96530.06;5041041;28;20566;-78
2023/01/29 08:06:23;;;;;;;8.67;6.93;;;;;;;-0.76;75.20;96535.94;5053779;28;20233;-80
2023/01/29 08:08:48;;;;;;;9.57;7.40;;;;;;;-0.70;75.45;96532.34;5039096;28;20753;-80
2023/01/29 08:11:14;;;;;;;7.40;6.47;;;;;;;-0.76;75.98;96543.59;5056347;28;20265;-80
2023/01/29 08:13:39;;;;;;;7.73;6.07;;;;;;;-0.81;75.46;96542.06;5055075;28;20563;-80
2023/01/29 08:16:05;;;;;;;5.97;5.37;;;;;;;-0.84;73.25;96547.28;5038245;28;20229;-80
2023/01/29 08:18:30;;;;;;;7.57;5.80;;;;;;;-0.85;72.44;96549.00;5042033;28;20183;-80
2023/01/29 08:21:00;;;;;;;6.37;5.73;;;;;;;-0.86;73.26;96543.06;5041678;28;20213;-80
2023/01/29 08:23:25;;;;;;;7.97;6.50;;;;;;;-0.83;73.68;96541.31;5052919;28;20374;-80
2023/01/29 08:25:50;;;;;;;10.63;6.83;;;;;;;-0.71;74.68;96538.31;5053456;28;20270;-80
2023/01/29 08:28:16;;;;;;;15.00;10.67;;;;;;;-0.68;74.35;96536.50;5040243;28;20196;-80
2023/01/29 08:30:42;;;;;;;8.63;6.80;;;;;;;-1.12;74.13;96545.69;5045580;28;20208;-80
2023/01/29 08:33:08;;;;;;;8.27;7.40;;;;;;;-0.73;74.36;96550.28;5036905;28;20183;-80
2023/01/29 08:35:33;;;;;;;17.53;10.40;;;;;;;-0.71;73.89;96553.59;5050170;28;20181;-80
2023/01/29 08:38:00;;;;;;;7.90;6.20;;;;;;;-0.76;72.93;96550.41;5038295;28;20202;-80
2023/01/29 08:40:27;;;;;;;22.50;11.23;;;;;;;-0.98;73.81;96552.84;5038161;28;20235;-80
2023/01/29 08:42:52;;;;;;;6.90;6.20;;;;;;;-1.34;74.43;96549.84;5038555;28;20192;-79
2023/01/29 08:45:17;;;;;;;6.63;5.83;;;;;;;-1.12;74.89;96547.41;5032025;28;20266;-80
2023/01/29 08:47:47;;;;;;;7.13;5.97;;;;;;;-0.73;74.39;96547.72;5042817;28;20645;-80
2023/01/29 08:50:12;;;;;;;8.67;6.87;;;;;;;-0.75;74.85;96549.50;5029006;28;20184;-80
2023/01/29 08:52:38;;;;;;;7.00;5.57;;;;;;;-0.65;73.35;96540.63;5033458;28;20194;-80
2023/01/29 08:55:03;;;;;;;7.83;6.20;;;;;;;-0.54;73.14;96548.72;5035528;28;20223;-80
2023/01/29 08:57:29;;;;;;;7.93;6.43;;;;;;;-0.22;72.05;96536.50;5036507;28;20284;-80
2023/01/29 08:59:54;;;;;;;7.67;6.63;;;;;;;-0.33;72.35;96545.41;5037010;28;20185;-80
2023/01/29 09:02:19;;;;;;;9.30;6.97;;;;;;;-0.08;72.70;96544.47;5036237;28;20675;-81
2023/01/29 09:04:45;;;;;;;9.20;7.90;;;;;;;-0.33;72.63;96554.78;5038293;28;20661;-81
2023/01/29 09:07:10;;;;;;;8.13;6.93;;;;;;;-0.61;71.34;96553.25;5047100;28;20228;-80
2023/01/29 09:09:36;;;;;;;7.20;6.50;;;;;;;-0.08;68.34;96557.25;5034125;28;20212;-81
2023/01/29 09:12:01;;;;;;;8.10;6.40;;;;;;;-0.02;68.81;96552.72;5038806;28;20202;-80
2023/01/29 09:14:27;;;;;;;9.13;7.73;;;;;;;-0.17;69.94;96548.22;5037583;28;20605;-81
2023/01/29 09:16:52;;;;;;;11.17;7.57;;;;;;;-0.11;70.11;96552.25;5042055;28;20189;-79
2023/01/29 09:19:17;;;;;;;8.33;6.90;;;;;;;0.03;69.76;96559.38;5038379;28;20193;-79
2023/01/29 09:21:43;;;;;;;9.63;6.27;;;;;;;0.10;68.32;96560.81;5042542;28;20208;-77
2023/01/29 09:24:08;;;;;;;8.20;7.10;;;;;;;0.14;68.11;96552.97;5042863;28;20212;-78
2023/01/29 09:26:34;;;;;;;9.87;8.07;;;;;;;-0.34;70.64;96561.59;5041559;28;20224;-78
2023/01/29 09:28:59;;;;;;;8.00;6.97;;;;;;;-0.50;70.24;96559.66;5044676;28;20223;-79
2023/01/29 09:31:25;;;;;;;9.43;7.30;;;;;;;-0.59;72.44;96565.94;5042487;28;20209;-77
2023/01/29 09:33:53;;;;;;;12.37;8.23;;;;;;;-0.35;71.39;96574.44;5047021;28;20202;-80
2023/01/29 09:36:18;;;;;;;26.33;18.63;;;;;;;0.03;69.68;96556.84;5035599;28;20202;-78
2023/01/29 09:38:44;;;;;;;35.53;25.60;;;;;;;0.26;69.15;96566.97;5041173;28;20189;-81
2023/01/29 09:41:22;;;;;;;26.37;20.20;;;;;;;0.52;68.64;96556.53;5049445;28;20209;-79
2023/01/29 09:43:54;;;;;;;14.30;12.70;;;;;;;0.47;68.40;96540.59;5057663;28;20188;-79
2023/01/29 09:46:24;;;;;;;12.03;10.73;;;;;;;0.85;67.28;96525.38;5038909;28;20205;-77
2023/01/29 09:49:15;;;;;;;11.63;9.17;;;;;;;0.74;68.92;96518.16;5054916;28;20197;-79
2023/01/29 09:51:45;;;;;;;11.80;9.50;;;;;;;1.03;67.55;96510.97;5044050;28;20268;-79
2023/01/29 09:54:31;;;;;;;13.07;9.10;;;;;;;0.80;69.22;96511.97;5042743;28;20188;-79
2023/01/29 09:56:56;;;;;;;12.43;9.63;;;;;;;0.97;69.32;96512.09;5053625;28;20184;-78
2023/01/29 09:59:24;;;;;;;10.57;8.40;;;;;;;1.04;66.54;96504.97;5041955;28;20224;-79
2023/01/29 10:01:53;;;;;;;11.20;8.40;;;;;;;0.40;68.47;96503.38;5040409;28;20214;-79
2023/01/29 10:04:26;;;;;;;10.03;8.13;;;;;;;1.00;68.06;96488.91;5043991;28;20190;-78
2023/01/29 10:07:09;;;;;;;12.67;9.50;;;;;;;0.29;69.91;96485.13;5038919;28;20309;-78
2023/01/29 10:09:41;;;;;;;9.90;8.57;;;;;;;0.30;71.08;96491.06;5053684;28;20178;-80
2023/01/29 10:12:44;;;;;;;10.97;8.43;;;;;;;0.74;69.18;96492.59;5059168;28;20873;-79
2023/01/29 10:15:49;;;;;;;10.10;8.27;;;;;;;-0.10;70.24;96493.44;5059017;28;20346;-79
2023/01/29 10:18:25;;;;;;;10.07;8.17;;;;;;;0.17;71.07;96490.69;5045162;28;20194;-78
2023/01/29 10:21:19;;;;;;;9.90;8.73;;;;;;;0.44;70.25;96511.75;5044337;28;20219;-78
2023/01/29 10:24:23;;;;;;;8.23;7.30;;;;;;;0.60;68.60;96520.44;5055000;28;20180;-77
2023/01/29 10:26:50;;;;;;;11.60;8.53;;;;;;;0.63;68.96;96514.41;5046710;28;20713;-78
2023/01/29 10:29:18;;;;;;;11.40;8.90;;;;;;;0.77;69.59;96512.09;5055675;28;20179;-77
2023/01/29 10:31:47;;;;;;;13.40;9.47;;;;;;;0.55;69.32;96517.28;5055051;28;20215;-77
2023/01/29 10:34:15;;;;;;;10.23;9.03;;;;;;;0.33;70.12;96507.06;5043482;28;20250;-78
2023/01/29 10:36:43;;;;;;;10.17;8.30;;;;;;;0.43;70.18;96516.03;5045518;28;20189;-78
2023/01/29 10:39:16;;;;;;;11.17;8.57;;;;;;;0.68;69.34;96509.91;5046883;28;20649;-78
2023/01/29 10:41:48;;;;;;;9.03;8.13;;;;;;;1.02;69.43;96511.88;5051838;28;20210;-78
2023/01/29 10:44:54;;;;;;;11.67;8.37;;;;;;;0.77;68.61;96512.09;5061432;28;20193;-79
2023/01/29 10:47:41;;;;;;;9.17;7.93;;;;;;;0.88;68.61;96516.72;5038216;28;20344;-79
2023/01/29 10:50:34;;;;;;;11.37;8.67;;;;;;;1.13;69.29;96512.22;5031711;28;20199;-77
2023/01/29 10:53:20;;;;;;;9.43;8.30;;;;;;;1.24;68.34;96522.84;5025061;28;20194;-79
2023/01/29 10:56:09;;;;;;;11.07;8.33;;;;;;;0.90;68.24;96527.75;5017402;28;20201;-78
2023/01/29 10:58:35;;;;;;;11.00;7.80;;;;;;;0.82;68.10;96525.50;5016569;28;20690;-78
2023/01/29 11:01:01;;;;;;;9.57;8.53;;;;;;;0.81;68.57;96524.69;5027295;28;20286;-78
2023/01/29 11:03:32;;;;;;;9.63;8.63;;;;;;;1.03;68.80;96523.75;5023840;28;20213;-78
2023/01/29 11:06:02;;;;;;;10.03;8.70;;;;;;;1.02;68.68;96517.81;5016961;28;20213;-79
2023/01/29 11:08:50;;;;;;;15.17;13.23;;;;;;;0.65;68.92;96513.44;5017020;28;20202;-78
2023/01/29 11:11:17;;;;;;;22.23;17.40;;;;;;;1.01;68.95;96510.22;5000207;28;20226;-80
2023/01/29 11:13:49;;;;;;;13.73;12.03;;;;;;;1.33;68.31;96506.25;5006092;28;20201;-77
2023/01/29 11:16:15;;;;;;;12.63;11.23;;;;;;;1.13;68.30;96505.38;5011908;28;20650;-77
2023/01/29 11:18:58;;;;;;;9.07;8.17;;;;;;;0.95;66.66;96510.47;5003987;28;20230;-77
2023/01/29 11:21:24;;;;;;;11.00;8.90;;;;;;;1.12;68.24;96500.34;5032794;28;20282;-77
2023/01/29 11:24:04;;;;;;;23.40;13.33;;;;;;;1.24;68.10;96487.03;5041580;28;20191;-78
2023/01/29 11:26:33;;;;;;;16.57;11.40;;;;;;;1.03;68.91;96482.84;5060265;28;20290;-78
2023/01/29 11:28:58;;;;;;;22.93;15.07;;;;;;;1.00;68.99;96494.03;5043960;28;20240;-78
2023/01/29 11:31:26;;;;;;;13.10;11.80;;;;;;;0.77;69.47;96487.34;5042884;28;20205;-79
2023/01/29 11:34:01;;;;;;;9.70;8.27;;;;;;;0.74;67.99;96482.38;5053163;28;20243;-79
2023/01/29 11:36:31;;;;;;;9.50;8.43;;;;;;;0.82;67.87;96480.31;5040156;28;20261;-79
2023/01/29 11:39:22;;;;;;;12.60;11.23;;;;;;;0.99;68.01;96479.59;5049396;28;20609;-79
2023/01/29 11:41:57;;;;;;;31.43;27.83;;;;;;;0.73;69.26;96470.47;5039258;28;20219;-79
2023/01/29 11:44:30;;;;;;;11.03;9.83;;;;;;;0.92;68.03;96472.25;5053509;28;20182;-79
2023/01/29 11:47:06;;;;;;;13.13;10.30;;;;;;;1.04;68.96;96464.84;5049622;28;20205;-78
2023/01/29 11:49:33;;;;;;;11.70;10.50;;;;;;;1.24;69.05;96458.88;5084396;28;20181;-80
2023/01/29 11:52:02;;;;;;;10.20;7.80;;;;;;;0.97;69.66;96460.06;5032114;28;20210;-79
2023/01/29 11:54:38;;;;;;;20.20;18.37;;;;;;;1.08;69.31;96458.72;5049533;28;20187;-79
2023/01/29 11:57:03;;;;;;;8.93;7.83;;;;;;;0.90;69.24;96459.53;5055546;28;20181;-78
2023/01/29 11:59:39;;;;;;;9.30;7.73;;;;;;;0.76;69.99;96456.72;5043906;28;20202;-80
2023/01/29 12:02:25;;;;;;;8.50;6.90;;;;;;;0.31;71.41;96456.94;5060508;28;20213;-79
2023/01/29 12:04:51;;;;;;;9.97;8.00;;;;;;;0.62;71.21;96448.81;5043757;28;20182;-80
2023/01/29 12:07:17;;;;;;;8.10;7.30;;;;;;;0.98;70.59;96448.97;5051671;28;20221;-79
2023/01/29 12:09:54;;;;;;;9.53;7.50;;;;;;;1.10;69.48;96438.19;5040908;28;20178;-79
2023/01/29 12:12:29;;;;;;;10.07;7.73;;;;;;;1.23;69.79;96428.22;5043413;28;20228;-79